Time;durP1;ratioP1;P1;durP2;ratioP2;P2;SDS_P1;SDS_P2;PMS_P1;PMS_P2;Temp;Humidity;BMP_temperature;BMP_pressure;BME280_temperature;BME280_humidity;BME280_pressure;Samples;Min_cycle;Max_cycle;Signal;HPM_P1;HPM_P2
2023/07/28 00:01:24;;;;;;;11.35;6.18;;;;;;;17.93;100.00;100550.31;5069507;28;20031;-75
2023/07/28 00:03:50;;;;;;;9.75;4.97;;;;;;;17.94;100.00;100549.31;5069713;28;20029;-76
2023/07/28 00:06:15;;;;;;;10.68;5.20;;;;;;;17.94;100.00;100544.72;5069559;28;20118;-76
2023/07/28 00:08:41;;;;;;;16.65;5.80;;;;;;;17.59;100.00;100490.72;5070072;28;20029;-78
2023/07/28 00:11:14;;;;;;;10.68;4.85;;;;;;;18.07;100.00;100565.91;5070040;28;20468;-77
2023/07/28 00:13:41;;;;;;;12.43;4.30;;;;;;;18.11;100.00;100559.09;5070813;28;20100;-75
2023/07/28 00:16:07;;;;;;;20.08;4.45;;;;;;;18.11;100.00;100564.56;5069694;28;20087;-77
2023/07/28 00:18:33;;;;;;;13.40;4.22;;;;;;;18.14;100.00;100560.63;5068325;28;20451;-76
2023/07/28 00:20:58;;;;;;;7.25;3.63;;;;;;;18.12;100.00;100568.13;5068060;28;20102;-75
2023/07/28 00:23:24;;;;;;;19.45;4.38;;;;;;;18.10;100.00;100559.31;5069788;28;20108;-77
2023/07/28 00:25:50;;;;;;;7.15;3.35;;;;;;;18.05;100.00;100556.22;5070217;28;20108;-76
2023/07/28 00:28:16;;;;;;;5.20;2.60;;;;;;;17.97;100.00;100535.34;5070043;28;20131;-76
2023/07/28 00:30:41;;;;;;;14.32;3.35;;;;;;;17.98;100.00;100550.63;5069382;28;20048;-76
2023/07/28 00:33:07;;;;;;;4.35;2.75;;;;;;;18.04;100.00;100544.50;5067946;28;20028;-75
2023/07/28 00:35:32;;;;;;;9.63;4.18;;;;;;;18.13;100.00;100553.50;5069373;28;20024;-75
2023/07/28 00:37:58;;;;;;;4.78;2.13;;;;;;;18.09;99.93;100544.84;5069179;28;20063;-75
2023/07/28 00:40:23;;;;;;;10.52;2.20;;;;;;;18.07;97.77;100552.31;5069052;28;20412;-75
2023/07/28 00:42:49;;;;;;;4.47;1.67;;;;;;;17.90;94.41;100528.91;5069476;28;20021;-75
2023/07/28 00:45:15;;;;;;;12.05;2.38;;;;;;;18.00;94.70;100545.03;5068925;28;20510;-76
2023/07/28 00:47:41;;;;;;;3.38;2.20;;;;;;;17.97;93.92;100554.41;5073294;28;20035;-77
2023/07/28 00:50:09;;;;;;;6.75;2.28;;;;;;;17.97;94.73;100565.28;5076825;28;20033;-77
2023/07/28 00:52:35;;;;;;;2.30;1.52;;;;;;;17.89;93.78;100563.41;5071161;28;20082;-76
2023/07/28 00:55:01;;;;;;;4.13;2.03;;;;;;;17.86;93.24;100563.75;5069739;28;20071;-76
2023/07/28 00:57:26;;;;;;;4.25;2.17;;;;;;;17.73;92.18;100541.72;5068894;28;20140;-77
2023/07/28 00:59:53;;;;;;;6.13;2.20;;;;;;;17.92;90.67;100573.97;5069033;28;20047;-74
2023/07/28 01:02:19;;;;;;;7.80;2.25;;;;;;;17.91;90.91;100576.88;5065771;28;20385;-75
2023/07/28 01:04:45;;;;;;;5.13;2.13;;;;;;;17.85;90.91;100555.78;5066133;28;20041;-76
2023/07/28 01:07:23;;;;;;;13.00;2.60;;;;;;;17.98;90.77;100582.47;5066243;28;20044;-75
2023/07/28 01:10:03;;;;;;;5.35;2.13;;;;;;;17.85;90.77;100567.53;5066148;28;20064;-75
2023/07/28 01:12:28;;;;;;;4.05;2.45;;;;;;;17.91;91.68;100579.59;5066416;28;20036;-75
2023/07/28 01:14:54;;;;;;;4.60;2.15;;;;;;;17.91;92.66;100572.28;5066332;28;20125;-76
2023/07/28 01:17:19;;;;;;;11.88;2.45;;;;;;;17.94;92.47;100592.84;5066324;28;20036;-74
2023/07/28 01:19:45;;;;;;;8.55;1.98;;;;;;;17.95;92.08;100591.81;5068746;28;20148;-76
2023/07/28 01:22:56;;;;;;;4.75;2.30;;;;;;;17.90;92.15;100594.19;5069586;28;20053;-75
2023/07/28 01:26:00;;;;;;;3.45;2.55;;;;;;;17.95;95.02;100589.94;5010151;28;20466;-77
2023/07/28 01:28:26;;;;;;;9.52;2.28;;;;;;;17.84;96.13;100593.03;5008393;28;20057;-75
2023/07/28 01:30:51;;;;;;;4.72;2.63;;;;;;;17.79;96.16;100591.84;5010124;28;20478;-76
2023/07/28 01:33:17;;;;;;;9.60;2.83;;;;;;;17.65;96.96;100576.22;5003079;28;20046;-76
2023/07/28 01:35:42;;;;;;;6.28;2.70;;;;;;;17.62;97.08;100593.72;5029568;28;20144;-75
2023/07/28 01:38:08;;;;;;;8.07;2.45;;;;;;;17.67;98.00;100601.38;5030364;28;20037;-77
2023/07/28 01:40:33;;;;;;;5.05;2.90;;;;;;;17.53;98.51;100588.41;5029331;28;20037;-76
2023/07/28 01:42:58;;;;;;;6.07;2.30;;;;;;;17.52;97.13;100597.63;5013709;28;20029;-75
2023/07/28 01:45:24;;;;;;;9.30;2.75;;;;;;;17.51;95.28;100593.19;5031906;28;20060;-74
2023/07/28 01:47:49;;;;;;;8.85;2.60;;;;;;;17.60;96.58;100594.91;5033278;28;20043;-76
2023/07/28 01:50:15;;;;;;;7.93;2.95;;;;;;;17.59;94.20;100609.53;5029525;28;20029;-76
2023/07/28 01:52:40;;;;;;;12.55;3.00;;;;;;;17.58;92.68;100603.25;5029896;28;20041;-78
2023/07/28 01:55:06;;;;;;;4.97;2.42;;;;;;;17.56;94.61;100604.44;5013017;28;20046;-76
2023/07/28 01:57:35;;;;;;;7.28;2.42;;;;;;;17.64;95.49;100607.16;5029767;28;20555;-76
2023/07/28 02:00:03;;;;;;;13.52;2.67;;;;;;;17.63;95.48;100608.19;5035260;28;20029;-78
2023/07/28 02:02:28;;;;;;;5.13;2.45;;;;;;;17.49;94.05;100587.09;5087481;28;20467;-78
2023/07/28 02:04:53;;;;;;;5.85;2.92;;;;;;;17.66;93.51;100614.13;5072983;28;20086;-77
2023/07/28 02:07:19;;;;;;;20.42;3.30;;;;;;;17.60;95.21;100600.34;5072795;28;20400;-77
2023/07/28 02:09:44;;;;;;;70.97;6.97;;;;;;;17.56;95.66;100596.28;5087406;28;20040;-78
2023/07/28 02:12:10;;;;;;;31.30;4.00;;;;;;;17.70;94.61;100618.22;5072643;28;20500;-76
2023/07/28 02:14:35;;;;;;;32.10;5.68;;;;;;;17.69;94.17;100621.09;5072770;28;20404;-79
2023/07/28 02:17:01;;;;;;;22.95;3.83;;;;;;;17.57;93.19;100600.69;5073099;28;20119;-78
2023/07/28 02:19:26;;;;;;;36.83;4.65;;;;;;;17.70;93.18;100628.25;5072459;28;20035;-79
2023/07/28 02:21:52;;;;;;;10.23;3.40;;;;;;;17.57;94.09;100617.03;5072078;28;20046;-78
2023/07/28 02:24:17;;;;;;;23.90;4.43;;;;;;;17.62;94.96;100641.81;5071901;28;20024;-78
2023/07/28 02:26:42;;;;;;;11.40;3.78;;;;;;;17.60;95.76;100630.28;5072348;28;20035;-78
2023/07/28 02:29:08;;;;;;;27.60;5.68;;;;;;;17.52;94.62;100635.69;5072768;28;20036;-79
2023/07/28 02:31:33;;;;;;;12.70;4.07;;;;;;;17.57;95.87;100634.19;5072201;28;20040;-78
2023/07/28 02:33:59;;;;;;;25.15;5.15;;;;;;;17.54;96.07;100636.38;5072342;28;20056;-76
2023/07/28 02:36:24;;;;;;;32.17;5.28;;;;;;;17.45;95.79;100640.09;5071740;28;20020;-77
2023/07/28 02:38:49;;;;;;;42.45;5.78;;;;;;;17.12;96.21;100588.44;5072238;28;20021;-78
2023/07/28 02:41:15;;;;;;;16.70;5.20;;;;;;;17.42;97.78;100639.44;5078422;28;20111;-80
2023/07/28 02:43:40;;;;;;;33.83;6.28;;;;;;;17.43;100.00;100643.81;5077523;28;20032;-76
2023/07/28 02:46:06;;;;;;;25.10;5.80;;;;;;;17.29;100.00;100633.63;5072393;28;20025;-80
2023/07/28 02:48:32;;;;;;;25.55;5.03;;;;;;;17.37;99.11;100643.66;5070673;28;20120;-78
2023/07/28 02:50:57;;;;;;;14.05;5.35;;;;;;;17.38;99.51;100640.78;5071856;28;20024;-76
2023/07/28 02:53:22;;;;;;;12.93;4.68;;;;;;;17.34;100.00;100639.41;5071787;28;20694;-79
2023/07/28 02:55:48;;;;;;;34.72;6.63;;;;;;;17.35;100.00;100623.94;5070677;28;20024;-76
2023/07/28 02:58:14;;;;;;;37.90;6.65;;;;;;;17.47;100.00;100643.50;5071465;28;20540;-78
2023/07/28 03:00:41;;;;;;;23.05;7.35;;;;;;;17.48;100.00;100648.78;5070463;28;20119;-78
2023/07/28 03:03:10;;;;;;;18.98;5.30;;;;;;;17.42;99.10;100636.72;5070775;28;20029;-78
2023/07/28 03:05:36;;;;;;;10.55;4.72;;;;;;;17.53;98.61;100651.81;5072089;28;20027;-76
2023/07/28 03:08:02;;;;;;;23.42;5.20;;;;;;;17.51;98.72;100655.75;5071598;28;20485;-78
2023/07/28 03:10:27;;;;;;;40.85;6.22;;;;;;;17.51;98.70;100650.31;5070271;28;20029;-80
2023/07/28 03:12:53;;;;;;;22.65;6.95;;;;;;;17.53;98.25;100650.97;5071030;28;20036;-78
2023/07/28 03:15:21;;;;;;;18.60;5.43;;;;;;;17.34;97.18;100617.66;5071244;28;20028;-79
2023/07/28 03:17:47;;;;;;;18.02;4.32;;;;;;;17.56;97.00;100658.81;5070781;28;20021;-77
2023/07/28 03:20:13;;;;;;;15.65;4.82;;;;;;;17.50;97.63;100648.59;5070761;28;20051;-78
2023/07/28 03:22:38;;;;;;;21.77;6.13;;;;;;;17.51;97.10;100647.56;5071917;28;20056;-77
2023/07/28 03:25:04;;;;;;;19.15;4.63;;;;;;;17.40;95.49;100648.75;5070243;28;20487;-79
2023/07/28 03:27:30;;;;;;;11.02;4.65;;;;;;;17.47;96.20;100659.81;5071846;28;20500;-76
2023/07/28 03:29:55;;;;;;;21.55;5.00;;;;;;;17.50;97.68;100659.47;5071500;28;20025;-76
2023/07/28 03:32:20;;;;;;;10.95;4.55;;;;;;;17.50;97.04;100675.78;5071471;28;20040;-78
2023/07/28 03:34:46;;;;;;;48.55;6.70;;;;;;;17.41;95.96;100666.78;5072765;28;20033;-77
2023/07/28 03:37:11;;;;;;;23.90;5.07;;;;;;;17.42;96.22;100677.50;5071573;28;20024;-78
2023/07/28 03:39:37;;;;;;;21.23;4.95;;;;;;;17.38;96.67;100667.97;5072175;28;20024;-75
2023/07/28 03:42:02;;;;;;;105.30;12.15;;;;;;;17.48;96.89;100688.72;5087214;28;20063;-79
2023/07/28 03:44:28;;;;;;;76.40;9.18;;;;;;;17.55;96.58;100700.66;5083939;28;20051;-76
2023/07/28 03:46:54;;;;;;;37.08;8.75;;;;;;;17.53;97.19;100702.63;5088362;28;20027;-78
2023/07/28 03:49:19;;;;;;;30.45;5.95;;;;;;;17.54;97.49;100696.19;5073703;28;20526;-77
2023/07/28 03:51:44;;;;;;;83.78;10.52;;;;;;;17.61;98.13;100705.44;5073224;28;20081;-76
2023/07/28 03:54:10;;;;;;;56.22;9.02;;;;;;;17.65;100.00;100712.22;5073516;28;20063;-76
2023/07/28 03:56:35;;;;;;;24.55;7.00;;;;;;;17.53;100.00;100697.19;5073073;28;20077;-76
2023/07/28 03:59:01;;;;;;;32.15;7.97;;;;;;;17.51;100.00;100691.94;5073947;28;20024;-76
2023/07/28 04:01:26;;;;;;;21.92;7.80;;;;;;;17.66;100.00;100716.63;5072523;28;20081;-76
2023/07/28 04:03:52;;;;;;;28.30;7.82;;;;;;;17.59;100.00;100710.16;5071409;28;20025;-76
2023/07/28 04:06:17;;;;;;;40.33;9.10;;;;;;;17.48;100.00;100702.31;5070979;28;20048;-76
2023/07/28 04:08:42;;;;;;;19.98;7.85;;;;;;;17.66;100.00;100714.78;5070885;28;20024;-78
2023/07/28 04:11:08;;;;;;;25.05;7.03;;;;;;;17.65;100.00;100717.66;5070392;28;20032;-78
2023/07/28 04:13:34;;;;;;;32.28;8.57;;;;;;;17.73;100.00;100726.69;5070427;28;20024;-77
2023/07/28 04:16:00;;;;;;;38.33;9.52;;;;;;;17.62;100.00;100712.53;5066452;28;20017;-77
2023/07/28 04:18:25;;;;;;;38.50;9.63;;;;;;;17.80;100.00;100745.88;5068666;28;20028;-78
2023/07/28 04:20:51;;;;;;;25.48;8.60;;;;;;;17.72;100.00;100729.56;5069149;28;20435;-77
2023/07/28 04:23:16;;;;;;;20.83;7.57;;;;;;;17.84;100.00;100745.41;5068883;28;20028;-77
2023/07/28 04:25:42;;;;;;;61.95;10.70;;;;;;;17.88;100.00;100735.03;5069526;28;20040;-79
2023/07/28 04:28:08;;;;;;;31.52;9.07;;;;;;;17.96;100.00;100743.19;5069358;28;20078;-77
2023/07/28 04:30:34;;;;;;;55.70;8.43;;;;;;;17.93;100.00;100721.75;5068332;28;20024;-78
2023/07/28 04:32:59;;;;;;;39.45;8.85;;;;;;;18.16;100.00;100749.16;5074878;28;20090;-78
2023/07/28 04:35:25;;;;;;;32.70;9.93;;;;;;;18.21;100.00;100755.78;5072852;28;20032;-75
2023/07/28 04:37:50;;;;;;;70.53;11.60;;;;;;;18.08;100.00;100727.38;5069109;28;20029;-77
2023/07/28 04:40:16;;;;;;;50.55;10.48;;;;;;;18.15;100.00;100742.84;5068797;28;20036;-78
2023/07/28 04:42:41;;;;;;;45.60;9.60;;;;;;;18.17;100.00;100719.03;5069070;28;20036;-77
2023/07/28 04:45:07;;;;;;;75.78;11.63;;;;;;;18.33;100.00;100739.94;5068338;28;20108;-77
2023/07/28 04:47:32;;;;;;;16.80;7.45;;;;;;;18.52;100.00;100741.50;5068468;28;20037;-78
2023/07/28 04:49:58;;;;;;;71.85;12.02;;;;;;;18.56;99.71;100740.13;5069122;28;20032;-78
2023/07/28 04:52:23;;;;;;;50.22;9.05;;;;;;;18.37;98.08;100709.50;5069804;28;20487;-80
2023/07/28 04:54:49;;;;;;;52.42;13.07;;;;;;;18.59;96.74;100748.78;5072170;28;20044;-77
2023/07/28 04:57:14;;;;;;;21.50;7.15;;;;;;;18.74;96.00;100757.97;5075367;28;20107;-81
2023/07/28 04:59:40;;;;;;;17.73;7.05;;;;;;;18.77;95.35;100737.69;5071908;28;20097;-78
2023/07/28 05:02:06;;;;;;;24.98;7.25;;;;;;;18.86;95.30;100742.09;5073456;28;20031;-86
2023/07/28 05:04:31;;;;;;;25.10;7.80;;;;;;;18.62;93.37;100702.16;5073461;28;20109;-83
2023/07/28 05:06:57;;;;;;;31.10;8.32;;;;;;;18.94;93.06;100733.88;5072884;28;20039;-80
2023/07/28 05:09:22;;;;;;;29.10;7.78;;;;;;;19.09;91.60;100736.69;5071405;28;20033;-79
2023/07/28 05:11:50;;;;;;;29.58;8.27;;;;;;;19.06;90.27;100710.66;5072773;28;20463;-79
2023/07/28 05:14:16;;;;;;;35.17;7.18;;;;;;;19.27;91.60;100732.69;5072022;28;20119;-77
2023/07/28 05:16:41;;;;;;;28.58;7.38;;;;;;;19.13;89.09;100708.06;5072309;28;20024;-79
2023/07/28 05:19:07;;;;;;;12.82;5.80;;;;;;;19.34;87.48;100747.31;5072076;28;20036;-78
2023/07/28 05:21:33;;;;;;;22.52;6.35;;;;;;;19.29;87.68;100724.34;5072507;28;20499;-77
2023/07/28 05:23:58;;;;;;;10.63;6.20;;;;;;;19.39;88.65;100742.22;5073186;28;20107;-81
2023/07/28 05:26:24;;;;;;;15.52;6.93;;;;;;;19.42;89.38;100743.72;5073194;28;20081;-77
2023/07/28 05:28:50;;;;;;;14.48;6.40;;;;;;;19.53;89.59;100746.06;5080997;28;20033;-78
2023/07/28 05:31:16;;;;;;;18.25;5.72;;;;;;;19.55;89.48;100747.56;5083731;28;20028;-78
2023/07/28 05:33:41;;;;;;;69.93;7.93;;;;;;;19.43;88.28;100712.69;5073751;28;20024;-81
2023/07/28 05:36:07;;;;;;;10.68;5.72;;;;;;;19.72;87.91;100750.22;5072613;28;20033;-78
2023/07/28 05:38:32;;;;;;;13.93;5.18;;;;;;;19.70;86.42;100757.72;5072772;28;20027;-81
2023/07/28 05:41:03;;;;;;;20.50;5.35;;;;;;;19.55;86.61;100723.03;5072258;28;20598;-77
2023/07/28 05:43:31;;;;;;;21.98;6.28;;;;;;;19.59;87.62;100717.19;5071672;28;20603;-82
2023/07/28 05:46:00;;;;;;;17.23;5.20;;;;;;;19.81;87.18;100751.84;5071530;28;20510;-80
2023/07/28 05:48:26;;;;;;;14.43;5.35;;;;;;;19.85;88.03;100734.91;5070370;28;20033;-80
2023/07/28 05:50:53;;;;;;;26.08;6.47;;;;;;;20.00;89.34;100754.94;5071165;28;20029;-77
2023/07/28 05:53:21;;;;;;;13.82;5.25;;;;;;;19.86;86.30;100735.75;5071827;28;20028;-82
2023/07/28 05:55:47;;;;;;;10.65;5.10;;;;;;;20.09;86.87;100761.16;5071191;28;20027;-80
2023/07/28 05:58:13;;;;;;;13.63;4.50;;;;;;;20.08;84.25;100763.06;5071349;28;20028;-80
2023/07/28 06:00:40;;;;;;;17.02;4.72;;;;;;;20.15;84.45;100740.50;5071651;28;20474;-77
2023/07/28 06:03:06;;;;;;;21.67;5.50;;;;;;;20.09;83.54;100723.78;5071126;28;20412;-76
2023/07/28 06:05:31;;;;;;;33.53;5.15;;;;;;;20.29;83.25;100750.63;5071179;28;20067;-77
2023/07/28 06:07:57;;;;;;;12.07;4.88;;;;;;;20.16;82.06;100707.53;5070993;28;20103;-77
2023/07/28 06:10:22;;;;;;;10.13;5.03;;;;;;;19.99;82.52;100654.09;5071268;28;20060;-77
2023/07/28 06:12:48;;;;;;;14.52;3.88;;;;;;;20.57;81.00;100744.38;5054287;28;20046;-79
2023/07/28 06:15:13;;;;;;;16.15;4.72;;;;;;;20.57;80.94;100727.13;5063238;28;20020;-78
2023/07/28 06:17:39;;;;;;;25.52;6.88;;;;;;;20.62;82.58;100732.88;5052045;28;20095;-77
2023/07/28 06:20:06;;;;;;;10.50;6.30;;;;;;;20.52;81.43;100705.81;5053264;28;20025;-78
2023/07/28 06:22:31;;;;;;;12.95;5.60;;;;;;;20.66;81.32;100723.28;5056771;28;20088;-77
2023/07/28 06:24:56;;;;;;;20.13;6.28;;;;;;;20.61;80.77;100715.63;5056120;28;20036;-77
2023/07/28 06:27:22;;;;;;;23.95;5.28;;;;;;;20.62;80.97;100711.00;5056814;28;20025;-79
2023/07/28 06:29:47;;;;;;;21.67;6.97;;;;;;;20.92;81.12;100748.25;5051533;28;20421;-76
2023/07/28 06:32:13;;;;;;;23.27;7.35;;;;;;;20.89;81.00;100731.38;5051093;28;20460;-78
2023/07/28 06:34:38;;;;;;;36.90;12.77;;;;;;;20.97;81.21;100736.75;5050792;28;20029;-77
2023/07/28 06:37:04;;;;;;;20.50;6.78;;;;;;;20.90;78.86;100719.41;5050374;28;20056;-81
2023/07/28 06:39:30;;;;;;;37.95;8.10;;;;;;;21.09;79.47;100730.66;5049995;28;20029;-76
2023/07/28 06:41:55;;;;;;;12.68;6.32;;;;;;;21.03;79.38;100714.13;5058603;28;20177;-75
2023/07/28 06:44:21;;;;;;;38.70;12.30;;;;;;;21.16;77.56;100730.72;5070486;28;20028;-77
2023/07/28 06:46:47;;;;;;;67.72;10.27;;;;;;;21.20;77.78;100723.84;5070583;28;20037;-82
2023/07/28 06:49:13;;;;;;;12.85;6.03;;;;;;;21.39;78.37;100738.81;5071519;28;20028;-83
2023/07/28 06:51:38;;;;;;;22.48;7.95;;;;;;;21.44;79.12;100741.81;5069917;28;20041;-80
2023/07/28 06:54:04;;;;;;;11.93;6.40;;;;;;;21.43;77.41;100737.41;5071325;28;20094;-81
2023/07/28 06:56:29;;;;;;;16.88;6.80;;;;;;;21.49;77.00;100742.09;5070389;28;20116;-80
2023/07/28 06:58:55;;;;;;;27.88;6.95;;;;;;;21.22;75.73;100690.84;5068982;28;20062;-80
2023/07/28 07:01:21;;;;;;;17.17;7.55;;;;;;;21.68;76.12;100761.47;5070966;28;20036;-81
2023/07/28 07:03:47;;;;;;;25.23;8.38;;;;;;;21.83;77.31;100764.19;5069259;28;20466;-78
2023/07/28 07:06:12;;;;;;;20.77;9.95;;;;;;;21.91;76.25;100768.69;5070562;28;20024;-79
2023/07/28 07:08:38;;;;;;;27.85;8.85;;;;;;;21.92;76.21;100765.78;5087281;28;20111;-85
2023/07/28 07:11:05;;;;;;;20.05;9.65;;;;;;;21.86;77.17;100743.78;5071937;28;20545;-81
2023/07/28 07:13:31;;;;;;;22.73;10.10;;;;;;;22.09;77.13;100780.06;5072799;28;20021;-84
2023/07/28 07:15:57;;;;;;;20.48;7.43;;;;;;;22.08;76.09;100772.88;5057086;28;20021;-83
2023/07/28 07:18:22;;;;;;;23.48;7.10;;;;;;;21.80;76.52;100728.13;5052251;28;20032;-84
2023/07/28 07:20:48;;;;;;;25.13;8.82;;;;;;;22.14;76.42;100778.41;5062009;28;20096;-85
2023/07/28 07:23:13;;;;;;;26.40;7.85;;;;;;;21.96;75.04;100749.78;5063804;28;20575;-82
2023/07/28 07:25:39;;;;;;;27.10;7.05;;;;;;;22.12;73.57;100782.41;5053722;28;20045;-84
2023/07/28 07:28:06;;;;;;;25.42;8.63;;;;;;;21.81;74.69;100725.16;5052315;28;20025;-84
2023/07/28 07:30:34;;;;;;;24.67;6.43;;;;;;;22.06;73.21;100755.78;5051262;28;20029;-82
2023/07/28 07:33:03;;;;;;;18.27;6.95;;;;;;;21.97;73.21;100741.38;5051387;28;20100;-83
2023/07/28 07:35:28;;;;;;;22.70;7.05;;;;;;;22.04;72.18;100749.66;5051003;28;20024;-85
2023/07/28 07:37:53;;;;;;;13.35;6.15;;;;;;;22.24;73.33;100775.34;5050753;28;20025;-83
2023/07/28 07:40:19;;;;;;;11.07;6.00;;;;;;;22.13;72.08;100752.09;5051519;28;20043;-84
2023/07/28 07:42:48;;;;;;;13.45;4.80;;;;;;;22.15;71.35;100741.75;5051180;28;20021;-83
2023/07/28 07:45:15;;;;;;;13.73;5.55;;;;;;;22.16;67.22;100750.84;5050222;28;20385;-83
2023/07/28 07:47:41;;;;;;;22.00;6.30;;;;;;;22.38;69.79;100773.59;5050791;28;20025;-83
2023/07/28 07:50:11;;;;;;;8.63;3.90;;;;;;;22.29;67.41;100766.56;5049233;28;20041;-84
2023/07/28 07:52:38;;;;;;;5.63;3.55;;;;;;;22.30;65.96;100747.16;5050646;28;20405;-84
2023/07/28 07:55:04;;;;;;;9.20;4.13;;;;;;;22.20;65.08;100721.97;5050088;28;20033;-83
2023/07/28 07:57:30;;;;;;;7.20;4.07;;;;;;;22.66;67.25;100783.53;5050227;28;20095;-82
2023/07/28 07:59:58;;;;;;;11.05;3.53;;;;;;;22.65;65.34;100773.63;5049557;28;20508;-83
2023/07/28 08:02:24;;;;;;;10.10;3.45;;;;;;;22.54;64.35;100738.50;5049213;28;20025;-83
2023/07/28 08:04:50;;;;;;;13.45;3.72;;;;;;;22.64;64.46;100744.47;5050874;28;20035;-83
2023/07/28 08:07:16;;;;;;;4.28;3.00;;;;;;;22.96;65.40;100775.09;5050507;28;20381;-82
2023/07/28 08:09:41;;;;;;;14.27;3.22;;;;;;;22.83;61.39;100742.09;5052289;28;20067;-81
2023/07/28 08:12:08;;;;;;;16.63;3.33;;;;;;;22.93;61.42;100735.22;5049206;28;20134;-81
2023/07/28 08:14:34;;;;;;;14.40;4.03;;;;;;;23.12;60.84;100747.31;5062852;28;20028;-80
2023/07/28 08:16:59;;;;;;;13.93;3.28;;;;;;;23.20;61.18;100738.94;5055376;28;20033;-77
2023/07/28 08:19:25;;;;;;;8.25;3.15;;;;;;;23.42;58.87;100757.03;5073127;28;20036;-78
2023/07/28 08:21:51;;;;;;;12.55;3.35;;;;;;;23.52;58.58;100760.22;5090920;28;20048;-78
2023/07/28 08:24:16;;;;;;;5.78;2.92;;;;;;;23.58;58.06;100753.03;5103250;28;20047;-76
2023/07/28 08:26:42;;;;;;;4.72;2.42;;;;;;;23.42;55.18;100735.06;5089669;28;20020;-78
2023/07/28 08:29:07;;;;;;;6.18;2.60;;;;;;;23.59;55.63;100761.09;5092052;28;20462;-76
2023/07/28 08:31:33;;;;;;;4.32;2.25;;;;;;;23.57;55.06;100743.97;5089292;28;20479;-78
2023/07/28 08:33:58;;;;;;;10.07;3.22;;;;;;;23.64;55.90;100746.72;5086391;28;20119;-76
2023/07/28 08:36:24;;;;;;;14.32;3.03;;;;;;;23.53;55.22;100707.00;5092418;28;20028;-76
2023/07/28 08:38:49;;;;;;;4.45;2.45;;;;;;;23.75;53.95;100736.00;5092556;28;20059;-77
2023/07/28 08:41:15;;;;;;;13.48;2.50;;;;;;;23.87;54.48;100749.13;5092654;28;20028;-77
2023/07/28 08:43:40;;;;;;;20.45;2.70;;;;;;;23.95;53.94;100749.75;5093135;28;20028;-77
2023/07/28 08:46:06;;;;;;;4.82;2.08;;;;;;;23.88;54.01;100729.69;5092783;28;20475;-80
2023/07/28 08:48:31;;;;;;;11.45;2.70;;;;;;;24.11;53.42;100752.16;5092031;28;20046;-77
2023/07/28 08:50:57;;;;;;;12.57;2.75;;;;;;;24.10;51.84;100742.16;5092306;28;20042;-76
2023/07/28 08:53:22;;;;;;;5.63;2.35;;;;;;;24.19;51.75;100764.81;5092956;28;20032;-76
2023/07/28 08:55:48;;;;;;;3.63;2.42;;;;;;;24.13;51.58;100730.78;5090231;28;20491;-78
2023/07/28 08:58:18;;;;;;;7.53;2.17;;;;;;;24.25;52.43;100745.59;5091954;28;20467;-77
2023/07/28 09:00:46;;;;;;;9.15;2.40;;;;;;;24.34;51.48;100747.06;5092098;28;20024;-76
2023/07/28 09:03:12;;;;;;;12.60;2.65;;;;;;;24.46;51.91;100741.81;5091873;28;20403;-78
2023/07/28 09:05:40;;;;;;;7.43;2.50;;;;;;;24.54;52.04;100744.34;5093082;28;20028;-77
2023/07/28 09:08:06;;;;;;;20.98;3.35;;;;;;;24.59;51.21;100736.28;5092683;28;20028;-78
2023/07/28 09:10:42;;;;;;;6.50;2.13;;;;;;;24.46;51.27;100703.31;5108629;28;20060;-76
2023/07/28 09:13:12;;;;;;;5.43;2.78;;;;;;;24.72;50.32;100740.91;5089477;28;20031;-78
2023/07/28 09:15:38;;;;;;;12.40;2.60;;;;;;;24.71;48.89;100741.97;5082345;28;20029;-78
2023/07/28 09:18:04;;;;;;;9.60;2.00;;;;;;;24.62;48.77;100713.00;5074384;28;20036;-77
2023/07/28 09:20:37;;;;;;;4.55;2.58;;;;;;;24.81;47.22;100732.25;5072660;28;20178;-79
2023/07/28 09:23:03;;;;;;;10.68;2.30;;;;;;;24.82;46.87;100730.38;5072229;28;20047;-78
2023/07/28 09:25:29;;;;;;;10.98;3.22;;;;;;;24.92;47.45;100720.59;5072019;28;20029;-78
2023/07/28 09:27:55;;;;;;;5.20;2.30;;;;;;;24.96;47.09;100709.16;5071682;28;20024;-77
2023/07/28 09:30:23;;;;;;;13.68;2.75;;;;;;;25.08;46.25;100719.28;5072232;28;20032;-80
2023/07/28 09:32:50;;;;;;;6.65;2.83;;;;;;;25.30;46.69;100739.09;5071725;28;20479;-77
2023/07/28 09:35:16;;;;;;;4.93;2.33;;;;;;;25.27;43.59;100723.00;5071726;28;20438;-78
2023/07/28 09:37:44;;;;;;;3.72;1.77;;;;;;;25.33;43.24;100722.13;5071564;28;20033;-78
2023/07/28 09:40:16;;;;;;;6.88;2.35;;;;;;;25.33;43.31;100716.63;5071026;28;20036;-77
2023/07/28 09:42:49;;;;;;;3.58;2.45;;;;;;;25.39;44.17;100721.25;5071578;28;20025;-77
2023/07/28 09:45:16;;;;;;;3.30;2.50;;;;;;;25.48;42.30;100719.94;5071310;28;20035;-77
2023/07/28 09:47:44;;;;;;;8.80;2.40;;;;;;;25.54;42.37;100690.69;5071568;28;20146;-78
2023/07/28 09:50:10;;;;;;;14.52;2.80;;;;;;;25.78;41.79;100712.81;5072508;28;20032;-78
2023/07/28 09:52:42;;;;;;;2.85;1.90;;;;;;;25.90;40.00;100724.81;5072915;28;20033;-78
2023/07/28 09:55:11;;;;;;;17.17;2.45;;;;;;;26.01;40.24;100714.16;5071403;28;20077;-78
2023/07/28 09:57:40;;;;;;;12.35;2.88;;;;;;;26.11;41.15;100714.50;5072285;28;20086;-77
2023/07/28 10:00:10;;;;;;;7.78;2.33;;;;;;;26.15;40.28;100704.69;5071643;28;20016;-77
2023/07/28 10:02:36;;;;;;;5.88;2.38;;;;;;;26.32;40.57;100722.41;5071494;28;20060;-77
2023/07/28 10:05:02;;;;;;;6.22;2.45;;;;;;;26.36;40.74;100709.88;5073158;28;20025;-78
2023/07/28 10:07:28;;;;;;;4.05;2.10;;;;;;;26.41;39.20;100715.56;5072536;28;20029;-78
2023/07/28 10:09:54;;;;;;;12.10;2.60;;;;;;;26.55;39.71;100717.09;5071931;28;20078;-79
2023/07/28 10:12:26;;;;;;;16.70;3.45;;;;;;;26.58;39.23;100713.91;5072563;28;20024;-78
2023/07/28 10:15:03;;;;;;;3.15;1.88;;;;;;;26.64;37.44;100704.72;5072274;28;20047;-77
2023/07/28 10:17:35;;;;;;;5.00;2.67;;;;;;;26.46;48.62;100702.75;5071161;28;20139;-76
2023/07/28 10:20:08;;;;;;;25.63;3.72;;;;;;;26.25;52.31;100702.31;5071556;28;20089;-77
2023/07/28 10:22:43;;;;;;;10.75;2.50;;;;;;;25.99;53.71;100695.91;5070962;28;20091;-78
2023/07/28 10:25:10;;;;;;;7.32;2.80;;;;;;;25.82;52.12;100704.94;5086758;28;20031;-77
2023/07/28 10:27:38;;;;;;;4.15;2.45;;;;;;;25.45;54.19;100679.06;5070991;28;20388;-77
2023/07/28 10:30:14;;;;;;;20.02;4.10;;;;;;;25.77;54.03;100697.38;5070921;28;20020;-75
2023/07/28 10:32:44;;;;;;;8.85;2.53;;;;;;;25.69;53.79;100682.97;5071518;28;20028;-76
2023/07/28 10:35:12;;;;;;;5.15;2.47;;;;;;;25.66;54.98;100695.28;5077401;28;20024;-77
2023/07/28 10:37:39;;;;;;;16.27;3.15;;;;;;;25.49;56.13;100685.88;5094797;28;20032;-80
2023/07/28 10:40:24;;;;;;;21.25;4.03;;;;;;;25.50;56.94;100690.31;5093638;28;20039;-79
2023/07/28 10:42:50;;;;;;;6.72;2.67;;;;;;;25.48;56.85;100675.03;5091499;28;20047;-77
2023/07/28 10:45:16;;;;;;;5.45;2.53;;;;;;;25.44;56.30;100677.41;5073524;28;20050;-77
2023/07/28 10:47:43;;;;;;;6.60;2.60;;;;;;;25.35;55.70;100673.22;5071199;28;20029;-77
2023/07/28 10:50:09;;;;;;;11.38;3.58;;;;;;;25.20;55.78;100645.94;5070813;28;20077;-78
2023/07/28 10:52:39;;;;;;;69.85;20.67;;;;;;;25.19;57.51;100659.94;5068509;28;20371;-78
2023/07/28 10:55:05;;;;;;;8.48;2.50;;;;;;;25.25;55.12;100665.44;5070931;28;20035;-76
2023/07/28 10:57:30;;;;;;;11.65;2.38;;;;;;;25.27;55.09;100663.28;5070059;28;20036;-76
2023/07/28 11:00:00;;;;;;;18.85;4.25;;;;;;;25.28;56.07;100642.13;5070182;28;20028;-76
2023/07/28 11:02:27;;;;;;;9.85;2.92;;;;;;;25.55;56.04;100675.88;5070064;28;20059;-77
2023/07/28 11:04:53;;;;;;;20.38;4.00;;;;;;;25.40;56.48;100660.47;5075235;28;20024;-77
2023/07/28 11:07:19;;;;;;;9.05;2.85;;;;;;;25.15;55.31;100621.00;5077660;28;20028;-76
2023/07/28 11:09:45;;;;;;;8.77;2.60;;;;;;;25.17;55.37;100642.78;5073272;28;20024;-77
2023/07/28 11:12:10;;;;;;;13.38;3.05;;;;;;;25.44;55.30;100663.63;5068152;28;20800;-77
2023/07/28 11:14:36;;;;;;;46.38;5.75;;;;;;;25.63;55.34;100667.34;5049787;28;20040;-77